Campbell Hall, New York
Current Conditions -  °F | °C
As of 5:54 AM on Friday 24 Oct 2014 (Local Time) from KMGJ Reporting Station
Overcast Overcast  
Wind Chill: 50°   Ceiling: 9000
Heat Index: 50°   Visibility: 10mi
Dew Point: 42°   Wind: 10mph
Humidity: 74%   Direction: 300°WNW
Pressure: 29.78"   Gusts: NA
Location:  41.46°N, 74.26°W
Report Text: KMGJ 240954Z AUTO 30009KT 10SM SCT080 OVC090 10/06 A2978 RMK AO2 RAE03 SLP085 P0000 T01000056 TSNO
Loading
Personal Weather Stations






























Interactive Weather Map
Tropical Storm Tracking
New forecast layout! Learn more

10-Day Weather Forecast

Advertisements
Track Severe Weather on mobile